Time;durP1;ratioP1;P1;durP2;ratioP2;P2;SDS_P1;SDS_P2;PMS_P1;PMS_P2;Temp;Humidity;BMP_temperature;BMP_pressure;BME280_temperature;BME280_humidity;BME280_pressure;Samples;Min_cycle;Max_cycle;Signal;HPM_P1;HPM_P2
2024/02/08 00:00:10;;;;;;;3.40;1.13;;;3.10;99.90;;;;;;4882469;29;20072;-79
2024/02/08 00:02:37;;;;;;;2.97;0.85;;;3.10;99.90;;;;;;4882267;29;20037;-78
2024/02/08 00:05:06;;;;;;;6.50;1.00;;;3.00;99.90;;;;;;4882063;29;20501;-79
2024/02/08 00:07:34;;;;;;;3.15;0.75;;;3.10;99.90;;;;;;4897712;29;20131;-78
2024/02/08 00:10:07;;;;;;;3.03;0.90;;;3.10;99.90;;;;;;4882551;29;20064;-78
2024/02/08 00:12:37;;;;;;;2.22;0.90;;;3.10;99.90;;;;;;4897613;29;20044;-78
2024/02/08 00:15:09;;;;;;;2.63;0.90;;;3.10;99.90;;;;;;4897730;29;20564;-78
2024/02/08 00:17:36;;;;;;;2.13;0.60;;;3.10;99.90;;;;;;4866811;29;20049;-78
2024/02/08 00:20:06;;;;;;;2.38;0.85;;;3.10;99.90;;;;;;4878755;29;20061;-77
2024/02/08 00:22:33;;;;;;;3.35;0.75;;;3.10;99.90;;;;;;4863226;29;20065;-78
2024/02/08 00:25:00;;;;;;;2.28;0.60;;;3.10;99.90;;;;;;4881668;29;20053;-77
2024/02/08 00:27:28;;;;;;;2.15;0.68;;;3.10;99.90;;;;;;4866252;29;20059;-76
2024/02/08 00:29:55;;;;;;;2.40;0.60;;;3.10;99.90;;;;;;4881833;29;20516;-77
2024/02/08 00:32:22;;;;;;;1.73;0.77;;;3.10;99.90;;;;;;4870707;29;20494;-77
2024/02/08 00:34:49;;;;;;;2.03;0.60;;;3.10;99.90;;;;;;4892041;29;20053;-82
2024/02/08 00:37:16;;;;;;;2.13;0.57;;;3.00;99.90;;;;;;4881903;29;20048;-74
2024/02/08 00:39:44;;;;;;;2.70;0.65;;;3.00;99.90;;;;;;4897111;29;20052;-74
2024/02/08 00:42:13;;;;;;;1.77;0.70;;;3.00;99.90;;;;;;4881297;29;20076;-75
2024/02/08 00:44:44;;;;;;;2.58;0.88;;;3.00;99.90;;;;;;4897230;29;20048;-74
2024/02/08 00:47:11;;;;;;;4.07;0.80;;;3.00;99.90;;;;;;4898095;29;20079;-74
2024/02/08 00:49:39;;;;;;;2.35;0.75;;;3.00;99.90;;;;;;4878015;29;20049;-74
2024/02/08 00:52:07;;;;;;;1.70;0.70;;;3.00;99.90;;;;;;4894321;29;20064;-74
2024/02/08 00:54:35;;;;;;;4.10;0.70;;;3.10;99.90;;;;;;4896880;29;20092;-74
2024/02/08 00:57:07;;;;;;;2.10;0.60;;;3.10;99.90;;;;;;4896715;29;20041;-74
2024/02/08 00:59:37;;;;;;;2.80;0.90;;;3.20;99.90;;;;;;4896625;29;20048;-75
2024/02/08 01:02:11;;;;;;;1.30;0.50;;;3.20;99.90;;;;;;4896840;29;20063;-75
2024/02/08 01:04:38;;;;;;;1.80;0.60;;;3.20;99.90;;;;;;4896631;29;20052;-75
2024/02/08 01:07:05;;;;;;;1.58;0.55;;;3.20;99.90;;;;;;4865762;29;20069;-75
2024/02/08 01:09:32;;;;;;;1.63;0.60;;;3.20;99.90;;;;;;4896362;29;20553;-76
2024/02/08 01:12:01;;;;;;;1.95;0.40;;;3.20;99.90;;;;;;4865980;29;20057;-75
2024/02/08 01:14:30;;;;;;;2.67;0.60;;;3.20;99.90;;;;;;4878038;29;20093;-75
2024/02/08 01:16:57;;;;;;;1.05;0.40;;;3.20;99.90;;;;;;4877835;29;20045;-74
2024/02/08 01:19:25;;;;;;;1.55;0.60;;;3.20;99.90;;;;;;4894084;29;20101;-74
2024/02/08 01:21:53;;;;;;;1.15;0.50;;;3.20;99.90;;;;;;4897773;29;20516;-75
2024/02/08 01:24:20;;;;;;;3.03;0.55;;;3.10;99.90;;;;;;4880692;29;20045;-75
2024/02/08 01:26:48;;;;;;;1.65;0.50;;;3.20;99.90;;;;;;4897632;29;20076;-75
2024/02/08 01:29:16;;;;;;;1.45;0.50;;;3.20;99.90;;;;;;4881075;29;20095;-75
2024/02/08 01:31:44;;;;;;;1.60;0.63;;;3.20;99.90;;;;;;4881090;29;20048;-75
2024/02/08 01:34:11;;;;;;;3.00;0.80;;;3.20;99.90;;;;;;4896497;29;20494;-75
2024/02/08 01:36:39;;;;;;;2.78;0.70;;;3.20;99.90;;;;;;4880884;29;20044;-75
2024/02/08 01:39:22;;;;;;;1.97;0.50;;;3.20;99.90;;;;;;4896648;29;20390;-75
2024/02/08 01:41:50;;;;;;;1.67;0.40;;;3.20;99.90;;;;;;4895495;29;20517;-75
2024/02/08 01:44:18;;;;;;;3.50;0.60;;;3.30;99.90;;;;;;4896405;29;20056;-75
2024/02/08 01:46:48;;;;;;;1.77;0.63;;;3.30;99.90;;;;;;4897554;29;20553;-75
2024/02/08 01:49:29;;;;;;;2.20;0.77;;;3.30;99.90;;;;;;4884702;29;20052;-75
2024/02/08 01:52:00;;;;;;;1.53;0.53;;;3.30;99.90;;;;;;4899658;29;20068;-75
2024/02/08 01:54:29;;;;;;;1.17;0.40;;;3.30;99.90;;;;;;4881524;29;20049;-75
2024/02/08 01:57:03;;;;;;;1.85;0.63;;;3.30;99.90;;;;;;4898972;29;20462;-75
2024/02/08 01:59:33;;;;;;;1.50;0.43;;;3.30;99.90;;;;;;4884503;29;20044;-75
2024/02/08 02:02:01;;;;;;;1.70;0.43;;;3.30;99.90;;;;;;4876842;29;20049;-75
2024/02/08 02:04:31;;;;;;;2.05;0.47;;;3.30;99.90;;;;;;4893094;29;20104;-75
2024/02/08 02:07:00;;;;;;;1.65;0.70;;;3.30;99.90;;;;;;4903401;29;20481;-75
2024/02/08 02:09:30;;;;;;;1.20;0.47;;;3.20;99.90;;;;;;4878023;29;20095;-76
2024/02/08 02:12:10;;;;;;;1.40;0.40;;;3.20;99.90;;;;;;4899385;29;20044;-75
2024/02/08 02:14:38;;;;;;;1.48;0.30;;;3.30;99.90;;;;;;4880750;29;20049;-75
2024/02/08 02:17:16;;;;;;;2.03;0.50;;;3.20;99.90;;;;;;4886280;29;20053;-75
2024/02/08 02:19:46;;;;;;;1.00;0.30;;;3.30;99.90;;;;;;4886961;29;20040;-76
2024/02/08 02:22:15;;;;;;;1.10;0.32;;;3.20;99.90;;;;;;4884299;29;20090;-75
2024/02/08 02:24:43;;;;;;;1.15;0.30;;;3.30;99.90;;;;;;4900384;29;20085;-75
2024/02/08 02:27:11;;;;;;;2.03;0.45;;;3.30;99.90;;;;;;4899170;29;20057;-75
2024/02/08 02:29:40;;;;;;;1.63;0.40;;;3.30;99.90;;;;;;4900867;29;20044;-75
2024/02/08 02:32:21;;;;;;;1.45;0.47;;;3.30;99.90;;;;;;4883989;29;20053;-75
2024/02/08 02:34:53;;;;;;;1.52;0.40;;;3.30;99.90;;;;;;4884296;29;20137;-76
2024/02/08 02:37:22;;;;;;;1.80;0.40;;;3.30;99.90;;;;;;4899150;29;20051;-75
2024/02/08 02:39:50;;;;;;;1.55;0.32;;;3.40;99.90;;;;;;4869535;29;20049;-75
2024/02/08 02:42:17;;;;;;;1.90;0.30;;;3.40;99.90;;;;;;4899045;29;20041;-75
2024/02/08 02:44:44;;;;;;;1.35;0.60;;;3.40;99.90;;;;;;4899951;29;20041;-75
2024/02/08 02:47:11;;;;;;;1.77;0.52;;;3.40;99.90;;;;;;4882883;29;20056;-76
2024/02/08 02:49:38;;;;;;;1.67;0.30;;;3.40;99.90;;;;;;4883163;29;20044;-76
2024/02/08 02:52:09;;;;;;;2.08;0.30;;;3.40;99.90;;;;;;4883000;29;20425;-75
2024/02/08 02:54:39;;;;;;;1.20;0.20;;;3.40;99.90;;;;;;4899436;29;20041;-75
2024/02/08 02:57:11;;;;;;;0.47;0.30;;;3.40;99.90;;;;;;4899839;29;20093;-75
2024/02/08 02:59:38;;;;;;;1.33;0.25;;;3.40;99.90;;;;;;4879215;29;20406;-75
2024/02/08 03:02:08;;;;;;;1.40;0.38;;;3.40;99.90;;;;;;4879115;29;20514;-75
2024/02/08 03:04:36;;;;;;;1.05;0.30;;;3.40;99.90;;;;;;4898411;29;20049;-75
2024/02/08 03:07:03;;;;;;;1.40;0.32;;;3.40;99.90;;;;;;4883172;29;20048;-75
2024/02/08 03:09:31;;;;;;;1.77;0.30;;;3.40;99.90;;;;;;4898573;29;20408;-75
2024/02/08 03:11:58;;;;;;;2.72;0.40;;;3.40;99.90;;;;;;4898528;29;20135;-75
2024/02/08 03:14:26;;;;;;;1.60;0.30;;;3.40;99.90;;;;;;4882939;29;20056;-75
2024/02/08 03:17:00;;;;;;;2.05;0.60;;;3.40;99.90;;;;;;4882705;29;20060;-75
2024/02/08 03:19:35;;;;;;;2.15;0.40;;;3.40;99.90;;;;;;4883776;29;20045;-76
2024/02/08 03:22:07;;;;;;;2.90;0.45;;;3.40;99.90;;;;;;4883908;29;20045;-75
2024/02/08 03:24:35;;;;;;;0.93;0.20;;;3.50;99.90;;;;;;4882389;29;20083;-76
2024/02/08 03:27:05;;;;;;;1.70;0.28;;;3.50;99.90;;;;;;4882808;29;20490;-75
2024/02/08 03:29:34;;;;;;;1.30;0.20;;;3.50;99.90;;;;;;4882711;29;20045;-75
2024/02/08 03:32:03;;;;;;;0.98;0.20;;;3.50;99.90;;;;;;4881724;29;20455;-75
2024/02/08 03:34:37;;;;;;;1.30;0.20;;;3.50;99.90;;;;;;4862843;29;20048;-75
2024/02/08 03:37:06;;;;;;;3.42;0.40;;;3.50;99.90;;;;;;4894429;29;20065;-75
2024/02/08 03:39:35;;;;;;;1.67;0.35;;;3.50;99.90;;;;;;4891943;29;20044;-75
2024/02/08 03:42:06;;;;;;;1.10;0.30;;;3.50;99.90;;;;;;4882626;29;20112;-75
2024/02/08 03:44:33;;;;;;;1.35;0.20;;;3.50;99.90;;;;;;4882352;29;20147;-75
2024/02/08 03:47:07;;;;;;;1.38;0.20;;;3.50;99.90;;;;;;4897390;29;20493;-75
2024/02/08 03:49:36;;;;;;;1.00;0.30;;;3.50;99.90;;;;;;4898766;29;20083;-75
2024/02/08 03:52:08;;;;;;;1.25;0.30;;;3.50;99.90;;;;;;4866644;29;20063;-75
2024/02/08 03:54:36;;;;;;;1.33;0.30;;;3.50;99.90;;;;;;4897512;29;20045;-75
2024/02/08 03:57:07;;;;;;;2.03;0.30;;;3.50;99.90;;;;;;4897451;29;20045;-75
2024/02/08 03:59:40;;;;;;;0.95;0.30;;;3.50;99.90;;;;;;4882579;29;20100;-75
2024/02/08 04:02:09;;;;;;;0.52;0.20;;;3.50;99.90;;;;;;4897275;29;20509;-75
2024/02/08 04:04:59;;;;;;;1.23;0.30;;;3.50;99.90;;;;;;4898487;29;20506;-75
2024/02/08 04:07:49;;;;;;;2.55;0.20;;;3.60;99.90;;;;;;4897281;29;20136;-75
2024/02/08 04:10:29;;;;;;;0.75;0.20;;;3.60;99.90;;;;;;4878387;29;20088;-75
2024/02/08 04:54:19;;;;;;;1.23;0.20;;;3.60;99.90;;;;;;4889762;29;20053;-75
2024/02/08 04:56:46;;;;;;;1.38;0.30;;;3.50;99.90;;;;;;4881187;29;20052;-76
2024/02/08 04:59:14;;;;;;;1.83;0.20;;;3.50;99.90;;;;;;4881165;29;20469;-75
2024/02/08 05:01:44;;;;;;;1.00;0.20;;;3.50;99.90;;;;;;4881448;29;20040;-76
2024/02/08 05:04:11;;;;;;;3.25;0.30;;;3.50;99.90;;;;;;4896774;29;20044;-75
2024/02/08 05:06:39;;;;;;;0.88;0.30;;;3.50;99.90;;;;;;4881206;29;20060;-75
2024/02/08 05:09:06;;;;;;;2.10;0.20;;;3.50;99.90;;;;;;4865491;29;20096;-76
2024/02/08 05:11:36;;;;;;;1.63;0.40;;;3.40;99.90;;;;;;4897782;29;20119;-76
2024/02/08 05:14:04;;;;;;;2.53;0.28;;;3.40;99.90;;;;;;4881368;29;20048;-75
2024/02/08 05:16:36;;;;;;;1.65;0.30;;;3.50;99.90;;;;;;4896441;29;20119;-76
2024/02/08 05:19:04;;;;;;;0.70;0.13;;;3.50;99.90;;;;;;4896310;29;20052;-76
2024/02/08 05:21:32;;;;;;;2.30;0.20;;;3.50;99.90;;;;;;4897367;29;20060;-75
2024/02/08 05:24:01;;;;;;;1.02;0.20;;;3.50;99.90;;;;;;4900351;29;20083;-75
2024/02/08 05:26:31;;;;;;;0.88;0.20;;;3.50;99.90;;;;;;4900136;29;20060;-75
2024/02/08 05:29:00;;;;;;;0.90;0.20;;;3.50;99.90;;;;;;4901417;29;20055;-75
2024/02/08 05:31:27;;;;;;;2.47;0.77;;;3.50;99.90;;;;;;4884508;29;20108;-75
2024/02/08 05:33:56;;;;;;;2.42;0.25;;;3.50;99.90;;;;;;4884534;29;20056;-75
2024/02/08 05:36:24;;;;;;;1.38;0.20;;;3.50;99.90;;;;;;4900081;29;20037;-75
2024/02/08 05:38:56;;;;;;;1.27;0.30;;;3.50;99.90;;;;;;4896294;29;20116;-75
2024/02/08 05:41:23;;;;;;;0.57;0.20;;;3.50;99.90;;;;;;4885232;29;20037;-75
2024/02/08 05:43:51;;;;;;;2.97;0.40;;;3.50;99.90;;;;;;4899680;29;20060;-76
2024/02/08 05:46:28;;;;;;;0.85;0.30;;;3.50;99.90;;;;;;4884336;29;20068;-75
2024/02/08 05:49:05;;;;;;;1.15;0.38;;;3.50;99.90;;;;;;4899693;29;20051;-75
2024/02/08 05:51:35;;;;;;;2.92;0.40;;;3.50;99.90;;;;;;4884438;29;20060;-75
2024/02/08 05:54:02;;;;;;;2.05;0.50;;;3.50;99.90;;;;;;4868619;29;20059;-75
2024/02/08 05:56:30;;;;;;;2.38;0.40;;;3.50;99.90;;;;;;4880967;29;20049;-75
2024/02/08 05:59:05;;;;;;;1.70;0.70;;;3.50;99.90;;;;;;4897508;29;20129;-75
2024/02/08 06:01:43;;;;;;;2.88;0.88;;;3.50;99.90;;;;;;4899724;29;20045;-75
2024/02/08 06:04:12;;;;;;;1.40;0.60;;;3.50;99.90;;;;;;4898417;29;20064;-75
2024/02/08 06:06:48;;;;;;;1.92;0.50;;;3.50;99.90;;;;;;4899539;29;20044;-75
2024/02/08 06:12:09;;;;;;;2.15;0.50;;;3.50;99.90;;;;;;4886250;29;20112;-75
2024/02/08 06:14:39;;;;;;;2.25;0.40;;;3.50;99.90;;;;;;4899558;29;20044;-75
2024/02/08 06:17:09;;;;;;;2.05;0.50;;;3.50;99.90;;;;;;4884456;29;20096;-75
2024/02/08 06:19:50;;;;;;;2.67;0.65;;;3.50;99.90;;;;;;4899441;29;20045;-76
2024/02/08 06:22:22;;;;;;;4.65;0.50;;;3.60;99.90;;;;;;4885084;29;20045;-76
2024/02/08 06:24:50;;;;;;;;;;;3.60;99.90;;;;;;4881064;29;20351;-75
2024/02/08 06:27:23;;;;;;;2.47;0.55;;;3.60;99.90;;;;;;4893707;29;19962;-75
2024/02/08 06:29:50;;;;;;;2.17;0.55;;;3.50;99.90;;;;;;4884242;29;20490;-75
2024/02/08 06:35:09;;;;;;;1.63;0.52;;;3.60;99.90;;;;;;4898790;29;20052;-76
2024/02/08 06:37:56;;;;;;;2.22;0.57;;;3.60;99.90;;;;;;4899343;29;20071;-75
2024/02/08 06:40:50;;;;;;;4.45;0.70;;;3.60;99.90;;;;;;4899290;29;20032;-76
2024/02/08 07:38:14;;;;;;;2.22;1.02;;;3.60;99.90;;;;;;4898151;29;20047;-76
2024/02/08 07:40:43;;;;;;;3.80;0.85;;;3.60;99.90;;;;;;4882445;29;20040;-76
2024/02/08 07:45:45;;;;;;;2.20;0.80;;;3.70;99.90;;;;;;4897243;29;20036;-76
2024/02/08 07:48:13;;;;;;;2.92;1.20;;;3.70;99.90;;;;;;4897668;29;20296;-76
2024/02/08 07:50:47;;;;;;;3.20;1.17;;;3.70;99.90;;;;;;4897757;29;20482;-76
2024/02/08 07:53:35;;;;;;;3.45;1.05;;;3.80;99.90;;;;;;4883179;29;20664;-76
2024/02/08 07:59:10;;;;;;;6.30;1.33;;;3.80;99.90;;;;;;4884533;29;20053;-76
2024/02/08 08:01:39;;;;;;;2.83;0.80;;;3.80;99.90;;;;;;4897148;29;20502;-76
2024/02/08 08:04:12;;;;;;;2.65;1.00;;;3.90;99.90;;;;;;4897282;29;20050;-76
2024/02/08 08:06:48;;;;;;;3.00;1.05;;;3.90;99.90;;;;;;4897134;29;20054;-76
2024/02/08 08:09:20;;;;;;;3.85;1.20;;;3.90;99.90;;;;;;4897662;29;20043;-76
2024/02/08 08:11:49;;;;;;;5.18;1.52;;;4.00;99.90;;;;;;4890687;29;20036;-76
2024/02/08 08:17:31;;;;;;;4.63;1.33;;;4.00;99.90;;;;;;4897094;29;20040;-76
2024/02/08 08:20:04;;;;;;;3.33;1.40;;;4.10;99.90;;;;;;4882071;29;20059;-76
2024/02/08 08:25:59;;;;;;;4.95;2.17;;;4.10;99.90;;;;;;4903542;29;20049;-76
2024/02/08 08:30:53;;;;;;;4.30;1.95;;;4.20;99.90;;;;;;4841179;29;20459;-76
2024/02/08 08:33:58;;;;;;;4.78;1.83;;;4.30;99.90;;;;;;4882813;29;20049;-76
2024/02/08 08:36:28;;;;;;;3.80;1.95;;;4.30;99.90;;;;;;4898010;29;20051;-76
2024/02/08 08:41:49;;;;;;;4.03;1.92;;;4.40;99.90;;;;;;4897937;29;20529;-76
2024/02/08 08:44:18;;;;;;;6.63;2.00;;;4.40;99.90;;;;;;4879036;29;20048;-76
2024/02/08 08:46:45;;;;;;;7.03;2.60;;;4.40;99.90;;;;;;4892385;29;20049;-75
2024/02/08 08:49:14;;;;;;;4.55;1.70;;;4.50;99.90;;;;;;4877947;29;20049;-75
2024/02/08 08:51:49;;;;;;;5.00;1.95;;;4.50;99.90;;;;;;4857700;29;20060;-74
2024/02/08 08:54:28;;;;;;;4.25;2.40;;;4.50;99.90;;;;;;4895994;29;20508;-74
2024/02/08 08:56:56;;;;;;;6.60;2.47;;;4.60;99.90;;;;;;4895866;29;20036;-74
2024/02/08 08:59:26;;;;;;;5.68;2.80;;;4.60;99.90;;;;;;4896685;29;20048;-75
2024/02/08 09:01:53;;;;;;;7.20;3.15;;;4.60;99.90;;;;;;4896479;29;20054;-75
2024/02/08 09:04:32;;;;;;;7.78;2.50;;;4.60;99.90;;;;;;4865719;29;20140;-75
2024/02/08 09:07:10;;;;;;;4.95;1.73;;;4.60;99.90;;;;;;4890884;29;20059;-74
2024/02/08 09:09:57;;;;;;;5.63;2.20;;;4.60;99.90;;;;;;4880820;29;20044;-75
2024/02/08 09:12:36;;;;;;;4.45;2.00;;;4.70;99.90;;;;;;4880817;29;20075;-75
2024/02/08 09:15:20;;;;;;;6.75;2.08;;;4.70;99.90;;;;;;4882524;29;20052;-75
2024/02/08 09:17:57;;;;;;;3.60;1.67;;;4.80;99.90;;;;;;4896403;29;20092;-75
2024/02/08 09:20:35;;;;;;;3.70;1.67;;;4.80;99.90;;;;;;4896606;29;20047;-75
2024/02/08 09:23:12;;;;;;;6.78;2.35;;;4.80;99.90;;;;;;4896379;29;20036;-75
2024/02/08 09:25:47;;;;;;;6.60;1.70;;;4.90;99.90;;;;;;4896122;29;20052;-76
2024/02/08 09:28:26;;;;;;;3.90;1.90;;;4.90;99.90;;;;;;4893533;29;20056;-76
2024/02/08 09:30:56;;;;;;;3.65;1.50;;;4.90;99.90;;;;;;4888633;29;20497;-75
2024/02/08 09:33:44;;;;;;;3.53;1.40;;;4.90;99.90;;;;;;4896251;29;20569;-75
2024/02/08 09:36:17;;;;;;;4.57;1.30;;;4.90;99.90;;;;;;4883545;29;20064;-76
2024/02/08 09:38:44;;;;;;;5.15;1.40;;;5.00;99.90;;;;;;4896292;29;20040;-75
2024/02/08 09:41:15;;;;;;;3.30;1.30;;;5.00;99.90;;;;;;4881056;29;20080;-75
2024/02/08 09:43:47;;;;;;;4.72;1.13;;;5.00;99.90;;;;;;4896054;29;20047;-75
2024/02/08 09:49:16;;;;;;;4.25;1.38;;;5.00;99.90;;;;;;4896281;29;20052;-75
2024/02/08 09:51:55;;;;;;;4.57;1.23;;;5.00;99.90;;;;;;4896208;29;20065;-75
2024/02/08 09:54:27;;;;;;;5.63;1.55;;;5.00;99.90;;;;;;4897402;29;20048;-75
2024/02/08 09:57:31;;;;;;;5.57;1.55;;;5.00;99.90;;;;;;4895894;29;20100;-75
2024/02/08 10:00:02;;;;;;;4.05;1.00;;;5.00;99.90;;;;;;4888987;29;20076;-75
2024/02/08 10:02:53;;;;;;;3.78;0.82;;;5.00;99.90;;;;;;4894268;29;20105;-75
2024/02/08 10:08:09;;;;;;;2.92;1.10;;;5.10;99.90;;;;;;4897896;29;20059;-75
2024/02/08 10:11:07;;;;;;;4.60;1.48;;;5.20;99.90;;;;;;4899364;29;20048;-75
2024/02/08 10:13:51;;;;;;;6.07;1.60;;;5.20;99.90;;;;;;4899388;29;20048;-75
2024/02/08 10:16:29;;;;;;;5.03;1.40;;;5.30;99.90;;;;;;4899367;29;20410;-75
2024/02/08 10:19:02;;;;;;;5.32;1.45;;;5.30;99.90;;;;;;4899347;29;20052;-75
2024/02/08 10:21:35;;;;;;;3.55;1.63;;;5.30;99.90;;;;;;4884596;29;20096;-75
2024/02/08 10:24:26;;;;;;;4.10;1.17;;;5.30;99.90;;;;;;4884648;29;20072;-75
2024/02/08 10:26:58;;;;;;;3.85;1.23;;;5.30;99.90;;;;;;4873964;29;20059;-74
2024/02/08 10:29:31;;;;;;;;;;;5.40;99.90;;;;;;4874523;29;20148;-75
2024/02/08 10:31:59;;;;;;;6.63;2.00;;;5.40;99.90;;;;;;4900319;29;20018;-75
2024/02/08 10:34:33;;;;;;;5.10;2.00;;;5.40;99.90;;;;;;4898893;29;20044;-75
2024/02/08 10:37:08;;;;;;;6.07;1.70;;;5.40;99.90;;;;;;4900340;29;20052;-80
2024/02/08 10:39:57;;;;;;;8.15;2.47;;;5.40;99.90;;;;;;4899140;29;20112;-79
2024/02/08 10:42:29;;;;;;;4.80;2.00;;;5.40;99.90;;;;;;4899133;29;20052;-79
2024/02/08 10:45:07;;;;;;;6.53;2.20;;;5.40;99.90;;;;;;4865679;29;20152;-80
2024/02/08 10:47:39;;;;;;;4.15;1.90;;;5.50;99.90;;;;;;4869174;29;20045;-78
2024/02/08 10:50:19;;;;;;;9.27;3.13;;;5.40;99.90;;;;;;4895158;29;20111;-78
2024/02/08 10:53:16;;;;;;;8.43;2.80;;;5.40;99.90;;;;;;4885466;29;20139;-79
2024/02/08 10:55:52;;;;;;;6.72;2.35;;;5.40;99.90;;;;;;4899198;29;20051;-80
2024/02/08 10:58:27;;;;;;;7.15;2.70;;;5.30;99.90;;;;;;4899252;29;20060;-80
2024/02/08 11:01:13;;;;;;;10.85;3.90;;;5.30;99.90;;;;;;4883934;29;20040;-79
2024/02/08 11:03:59;;;;;;;9.07;3.90;;;5.30;99.90;;;;;;4898773;29;20052;-79
2024/02/08 11:06:32;;;;;;;10.15;2.95;;;5.20;99.90;;;;;;4885984;29;20059;-80
2024/02/08 11:09:17;;;;;;;8.75;3.47;;;5.20;99.90;;;;;;4883896;29;20201;-80
2024/02/08 11:11:51;;;;;;;7.13;2.53;;;5.20;99.90;;;;;;4885269;29;20147;-80
2024/02/08 11:14:20;;;;;;;8.23;3.00;;;5.20;99.90;;;;;;4898389;29;20269;-79
2024/02/08 11:16:51;;;;;;;8.10;3.30;;;5.20;99.90;;;;;;4882825;29;20080;-80
2024/02/08 11:19:19;;;;;;;6.72;2.60;;;5.20;99.90;;;;;;4897520;29;20064;-75
2024/02/08 11:21:49;;;;;;;8.10;2.70;;;5.20;99.90;;;;;;4879607;29;20044;-75
2024/02/08 11:24:38;;;;;;;9.65;2.70;;;5.20;99.90;;;;;;4895862;29;20056;-80
2024/02/08 11:27:06;;;;;;;6.80;2.35;;;5.30;99.90;;;;;;4884970;29;20524;-81
2024/02/08 11:29:45;;;;;;;5.13;2.10;;;5.20;99.90;;;;;;4883063;29;20053;-80
2024/02/08 11:32:18;;;;;;;6.50;2.22;;;5.30;99.90;;;;;;4886922;29;20041;-80
2024/02/08 11:34:46;;;;;;;6.60;2.80;;;5.20;99.90;;;;;;4883321;29;20104;-79
2024/02/08 11:37:15;;;;;;;6.47;2.42;;;5.20;99.90;;;;;;4898410;29;20049;-80
2024/02/08 11:39:46;;;;;;;8.18;2.53;;;5.20;99.90;;;;;;4882909;29;20049;-81
2024/02/08 11:42:16;;;;;;;7.30;4.05;;;5.20;99.90;;;;;;4885983;29;20100;-81
2024/02/08 11:44:46;;;;;;;5.85;2.85;;;5.20;99.90;;;;;;4882706;29;20048;-80
2024/02/08 11:47:19;;;;;;;7.55;2.60;;;5.20;99.90;;;;;;4897810;29;20490;-83
2024/02/08 11:49:52;;;;;;;7.70;2.47;;;5.20;99.90;;;;;;4882698;29;20505;-82
2024/02/08 11:52:23;;;;;;;8.73;2.60;;;5.30;99.90;;;;;;4882498;29;20059;-80
2024/02/08 11:55:14;;;;;;;5.00;2.38;;;5.30;99.90;;;;;;4882941;29;20513;-80
2024/02/08 11:57:42;;;;;;;8.63;3.15;;;5.40;99.90;;;;;;4897726;29;20076;-79
2024/02/08 12:00:17;;;;;;;5.53;1.98;;;5.40;99.90;;;;;;4882100;29;20072;-77
2024/02/08 12:03:01;;;;;;;6.60;2.38;;;5.40;99.90;;;;;;4885364;29;20048;-81
2024/02/08 12:05:29;;;;;;;7.88;2.97;;;5.40;99.90;;;;;;4883843;29;20052;-79
2024/02/08 12:08:08;;;;;;;8.73;3.25;;;5.40;99.90;;;;;;4898009;29;20048;-76
2024/02/08 12:10:37;;;;;;;6.20;2.95;;;5.30;99.90;;;;;;4882424;29;20052;-80
2024/02/08 12:13:05;;;;;;;9.00;2.63;;;5.30;99.90;;;;;;4867185;29;20067;-81
2024/02/08 12:15:35;;;;;;;6.90;2.90;;;5.30;99.90;;;;;;4886749;29;20049;-81
2024/02/08 12:18:05;;;;;;;7.32;2.50;;;5.20;99.90;;;;;;4885940;29;20417;-76
2024/02/08 12:20:36;;;;;;;9.25;3.28;;;5.20;99.90;;;;;;4907600;29;20048;-80
2024/02/08 12:23:05;;;;;;;8.77;2.83;;;5.20;99.90;;;;;;4886513;29;20060;-81
2024/02/08 12:25:33;;;;;;;6.80;2.72;;;5.20;99.90;;;;;;4867757;29;20045;-82
2024/02/08 12:28:06;;;;;;;7.28;2.70;;;5.20;99.90;;;;;;4879595;29;20057;-81
2024/02/08 12:30:39;;;;;;;6.82;3.10;;;5.10;99.90;;;;;;4877160;29;20105;-81
2024/02/08 12:33:10;;;;;;;8.88;3.15;;;5.10;99.90;;;;;;4863527;29;20577;-82
2024/02/08 12:35:43;;;;;;;8.20;3.15;;;5.10;99.90;;;;;;4897264;29;20060;-81
2024/02/08 12:38:13;;;;;;;8.63;3.50;;;5.10;99.90;;;;;;4863866;29;20129;-78
2024/02/08 12:40:44;;;;;;;10.25;4.43;;;5.10;99.90;;;;;;4881999;29;20138;-80
2024/02/08 12:43:13;;;;;;;8.73;4.05;;;5.10;99.90;;;;;;4898776;29;20044;-79
2024/02/08 12:45:41;;;;;;;10.13;3.65;;;5.10;99.90;;;;;;4885350;29;20048;-77
2024/02/08 12:48:08;;;;;;;10.27;4.22;;;5.00;99.90;;;;;;4897002;29;20055;-81
2024/02/08 12:50:37;;;;;;;10.13;3.92;;;4.90;99.90;;;;;;4897433;29;20052;-80
2024/02/08 12:53:05;;;;;;;8.85;4.15;;;4.90;99.90;;;;;;4897625;29;20409;-80
2024/02/08 12:55:33;;;;;;;11.75;4.57;;;4.90;99.90;;;;;;4881611;29;20494;-83
2024/02/08 12:58:13;;;;;;;8.75;3.88;;;4.80;99.90;;;;;;4897457;29;20047;-82
2024/02/08 13:00:58;;;;;;;8.85;4.25;;;4.80;99.90;;;;;;4885370;29;20036;-81
2024/02/08 13:03:27;;;;;;;12.30;4.30;;;4.80;99.90;;;;;;4866618;29;20044;-82
2024/02/08 13:06:23;;;;;;;9.25;4.03;;;4.70;99.90;;;;;;4882454;29;20040;-83
2024/02/08 13:09:10;;;;;;;9.40;3.38;;;4.80;99.90;;;;;;4897278;29;20097;-82
2024/02/08 13:12:29;;;;;;;11.30;4.07;;;4.70;99.90;;;;;;4893098;29;20044;-82
2024/02/08 13:15:05;;;;;;;8.32;2.58;;;4.70;99.90;;;;;;4897600;29;20049;-80
2024/02/08 13:17:33;;;;;;;9.15;3.25;;;4.70;99.90;;;;;;4896557;29;20080;-80
2024/02/08 13:20:12;;;;;;;8.05;2.38;;;4.60;99.90;;;;;;4896670;29;20044;-80
2024/02/08 13:22:44;;;;;;;7.03;3.00;;;4.60;99.90;;;;;;4896345;29;20490;-79
2024/02/08 13:25:12;;;;;;;6.70;2.40;;;4.60;99.90;;;;;;4862640;29;20566;-80
2024/02/08 13:27:41;;;;;;;7.35;2.58;;;4.60;99.90;;;;;;4870302;29;20057;-81
2024/02/08 13:30:17;;;;;;;7.28;2.92;;;4.60;99.90;;;;;;4894966;29;20522;-81
2024/02/08 13:32:51;;;;;;;7.63;2.38;;;4.60;99.90;;;;;;4881406;29;20049;-82
2024/02/08 13:35:19;;;;;;;5.78;2.22;;;4.60;99.90;;;;;;4884007;29;20511;-82
2024/02/08 13:37:55;;;;;;;5.82;2.10;;;4.50;99.90;;;;;;4875319;29;20492;-77
2024/02/08 13:40:24;;;;;;;8.20;2.75;;;4.50;99.90;;;;;;4896670;29;20100;-84
2024/02/08 13:42:56;;;;;;;5.97;2.22;;;4.50;99.90;;;;;;4882679;29;20049;-83
2024/02/08 13:45:27;;;;;;;6.88;2.97;;;4.50;99.90;;;;;;4884723;29;20092;-83
2024/02/08 13:47:56;;;;;;;7.95;2.20;;;4.40;99.90;;;;;;4870923;29;20053;-83
2024/02/08 13:50:28;;;;;;;5.80;1.80;;;4.40;99.90;;;;;;4885073;29;20052;-84
2024/02/08 13:53:01;;;;;;;6.05;2.13;;;4.50;99.90;;;;;;4885920;29;20053;-84
2024/02/08 13:55:32;;;;;;;3.05;1.15;;;4.50;99.90;;;;;;4885651;29;20482;-83
2024/02/08 13:58:06;;;;;;;5.38;2.08;;;4.50;99.90;;;;;;4870265;29;20414;-82
2024/02/08 14:00:34;;;;;;;3.50;1.25;;;4.50;99.90;;;;;;4869983;29;20142;-83
2024/02/08 14:03:03;;;;;;;5.40;1.45;;;4.50;99.90;;;;;;4884600;29;20498;-84
2024/02/08 14:05:36;;;;;;;3.70;1.35;;;4.50;99.90;;;;;;4868325;29;20105;-82
2024/02/08 14:08:04;;;;;;;3.00;0.98;;;4.50;99.90;;;;;;4867423;29;20045;-84
2024/02/08 14:10:31;;;;;;;4.30;1.40;;;4.50;99.90;;;;;;4880355;29;20079;-84
2024/02/08 14:13:05;;;;;;;3.15;1.27;;;4.50;99.90;;;;;;4884979;29;20157;-84
2024/02/08 14:15:33;;;;;;;2.10;1.00;;;4.50;99.90;;;;;;4900266;29;20058;-83
2024/02/08 14:18:22;;;;;;;3.88;1.20;;;4.40;99.90;;;;;;4884175;29;20049;-81
2024/02/08 14:20:57;;;;;;;4.43;1.45;;;4.40;99.90;;;;;;4883189;29;20045;-83
2024/02/08 14:23:40;;;;;;;3.10;1.25;;;4.40;99.90;;;;;;4884200;29;20048;-80
2024/02/08 14:28:46;;;;;;;2.08;0.98;;;4.30;99.90;;;;;;4899315;29;20064;-77
2024/02/08 14:31:17;;;;;;;2.40;0.68;;;4.30;99.90;;;;;;4899229;29;20501;-80
2024/02/08 14:33:48;;;;;;;3.08;0.82;;;4.30;99.90;;;;;;4884306;29;20055;-77
2024/02/08 14:36:18;;;;;;;2.17;1.02;;;4.30;99.90;;;;;;4899118;29;20044;-77
2024/02/08 14:38:47;;;;;;;3.20;0.85;;;4.30;99.90;;;;;;4884050;29;20055;-77
2024/02/08 14:41:25;;;;;;;3.65;1.15;;;4.30;99.90;;;;;;4883521;29;20473;-78
2024/02/08 14:44:05;;;;;;;3.72;1.10;;;4.30;99.90;;;;;;4901119;29;20092;-77
2024/02/08 14:46:39;;;;;;;3.85;1.05;;;4.20;99.90;;;;;;4881729;29;20055;-77
2024/02/08 14:49:17;;;;;;;4.82;1.17;;;4.20;99.90;;;;;;4886764;29;20048;-77
2024/02/08 14:51:48;;;;;;;4.45;1.00;;;4.20;99.90;;;;;;4883742;29;20049;-77
2024/02/08 14:54:18;;;;;;;3.42;1.08;;;4.20;99.90;;;;;;4897847;29;20113;-77
2024/02/08 14:57:03;;;;;;;3.40;1.02;;;4.20;99.90;;;;;;4898869;29;20053;-77
2024/02/08 15:00:05;;;;;;;3.65;1.38;;;4.20;99.90;;;;;;4867494;29;20055;-78
2024/02/08 15:02:32;;;;;;;3.95;1.30;;;4.20;99.90;;;;;;4879752;29;20387;-78
2024/02/08 15:05:00;;;;;;;3.05;1.20;;;4.10;99.90;;;;;;4887795;29;20502;-78
2024/02/08 15:07:52;;;;;;;4.25;1.55;;;4.10;99.90;;;;;;4893269;29;20049;-78
2024/02/08 15:10:43;;;;;;;4.28;1.52;;;4.10;99.90;;;;;;4895472;29;20049;-80
2024/02/08 15:20:36;;;;;;;3.42;1.13;;;3.90;99.90;;;;;;4898941;29;20121;-82
2024/02/08 15:23:17;;;;;;;3.00;1.27;;;3.90;99.90;;;;;;4905929;29;20056;-80
2024/02/08 15:26:12;;;;;;;3.20;1.13;;;3.80;99.90;;;;;;4898774;29;20482;-79
2024/02/08 15:28:54;;;;;;;5.25;1.30;;;3.80;99.90;;;;;;4886018;29;20520;-78
2024/02/08 15:31:39;;;;;;;3.67;1.00;;;3.80;99.90;;;;;;4884654;29;20061;-78
2024/02/08 15:42:09;;;;;;;3.37;0.97;;;3.80;99.90;;;;;;4883092;29;20109;-79
2024/02/08 15:44:45;;;;;;;3.35;0.95;;;3.80;99.90;;;;;;4880029;29;20041;-76
2024/02/08 15:47:15;;;;;;;3.97;1.02;;;3.80;99.90;;;;;;4897004;29;20053;-77
2024/02/08 15:49:45;;;;;;;3.23;1.03;;;3.80;99.90;;;;;;4898865;29;20116;-78